Terminal Aerodrome Forecast
Issued by NWS Newport/Morehead City, NC

Home | Current Version | Previous Version | Text Only | Print | Product List | Glossary On
Versions: 1 2 3 4 5 6 7 8 9 10 11 12 13
820
FTUS42 KMHX 281739
TAFEWN
TAF
KEWN 281739Z 2818/2918 22008KT P6SM VCSH BKN080
      TEMPO 2821/2822 4SM TS OVC025CB
     FM282200 22008KT P6SM VCSH FEW020 SCT110
     FM290300 VRB04KT P6SM SCT050
     FM291400 01008KT P6SM BKN250=

USA.gov is the U.S. government's official web portal to all federal, state and local government web resources and services.